Campinapolis, Brazil
Current Conditions -  °F | °C
As of 5:00 PM on Saturday 25 Oct 2014 (Local Time) from SBBW Reporting Station
Few Clouds Few Clouds  
Wind Chill: 86°   Ceiling: Unl
Heat Index: 89°   Visibility: 6mi
Dew Point: 68°   Wind: 2mph
Humidity: 55%   Direction: 130°SE
Pressure: 29.83"   Gusts: NA
Location:  14.52°S, 52.89°W
Report Text: SBBW 252000Z 13002KT 9999 FEW020 30/20 Q1010
Loading
Personal Weather Stations






























Interactive Weather Map
Tropical Storm Tracking
New forecast layout! Learn more

10-Day Weather Forecast

Advertisements
Track Severe Weather on mobile